Time;durP1;ratioP1;P1;durP2;ratioP2;P2;SDS_P1;SDS_P2;PMS_P1;PMS_P2;Temp;Humidity;BMP_temperature;BMP_pressure;BME280_temperature;BME280_humidity;BME280_pressure;Samples;Min_cycle;Max_cycle;Signal;HPM_P1;HPM_P2
2022/06/09 00:02:16;;;;;;;0.50;0.50;;;18.80;99.90;;;;;;5038287;28;20206;-65
2022/06/09 00:05:07;;;;;;;0.47;0.47;;;18.80;99.90;;;;;;5036354;28;20205;-65
2022/06/09 00:07:57;;;;;;;0.40;0.40;;;18.80;99.90;;;;;;5036071;28;20222;-65
2022/06/09 00:10:52;;;;;;;0.50;0.50;;;18.80;99.90;;;;;;5038082;28;20202;-65
2022/06/09 00:13:42;;;;;;;0.40;0.40;;;18.70;99.90;;;;;;5036622;28;20222;-65
2022/06/09 00:16:30;;;;;;;0.40;0.40;;;18.70;99.90;;;;;;5036172;28;20560;-66
2022/06/09 00:19:19;;;;;;;0.40;0.40;;;18.70;99.90;;;;;;5035167;28;20234;-65
2022/06/09 00:22:08;;;;;;;0.40;0.40;;;18.70;99.90;;;;;;5036166;28;20216;-65
2022/06/09 00:24:56;;;;;;;0.40;0.40;;;18.60;99.90;;;;;;5035534;28;20190;-65
2022/06/09 00:27:44;;;;;;;0.40;0.40;;;18.60;99.90;;;;;;5036168;28;20222;-65
2022/06/09 00:30:35;;;;;;;0.40;0.40;;;18.50;99.90;;;;;;5035418;28;20198;-65
2022/06/09 00:33:23;;;;;;;0.40;0.40;;;18.50;99.90;;;;;;5036831;28;20595;-65
2022/06/09 00:36:11;;;;;;;0.40;0.40;;;18.50;99.90;;;;;;5038296;28;20210;-65
2022/06/09 00:39:00;;;;;;;0.40;0.40;;;18.50;99.90;;;;;;5036057;28;20202;-65
2022/06/09 00:41:48;;;;;;;0.40;0.40;;;18.50;99.90;;;;;;5037259;28;20296;-65
2022/06/09 00:44:38;;;;;;;0.50;0.50;;;18.50;99.90;;;;;;5037904;28;20694;-65
2022/06/09 00:47:31;;;;;;;0.40;0.40;;;18.40;99.90;;;;;;5035739;28;20222;-65
2022/06/09 00:50:22;;;;;;;0.40;0.40;;;18.40;99.90;;;;;;5035144;28;20578;-65
2022/06/09 00:53:15;;;;;;;0.40;0.40;;;18.40;99.90;;;;;;5036344;28;20289;-66
2022/06/09 00:56:05;;;;;;;0.47;0.47;;;18.30;99.90;;;;;;5036349;28;20272;-65
2022/06/09 00:58:55;;;;;;;0.82;0.47;;;18.30;99.90;;;;;;5051997;28;20220;-66
2022/06/09 01:01:44;;;;;;;0.40;0.40;;;18.30;99.90;;;;;;5050680;28;20210;-69
2022/06/09 01:04:35;;;;;;;0.40;0.40;;;18.30;99.90;;;;;;5052149;28;20250;-65
2022/06/09 01:07:27;;;;;;;0.40;0.40;;;18.20;99.90;;;;;;5052078;28;20237;-65
2022/06/09 01:10:15;;;;;;;0.57;0.57;;;18.20;99.90;;;;;;5050094;28;20251;-65
2022/06/09 01:13:04;;;;;;;0.40;0.40;;;18.20;99.90;;;;;;5045530;28;20210;-65
2022/06/09 01:16:01;;;;;;;0.40;0.40;;;18.20;99.90;;;;;;5045489;28;20230;-65
2022/06/09 01:18:59;;;;;;;0.60;0.60;;;18.10;99.90;;;;;;5042548;28;20765;-65
2022/06/09 01:22:10;;;;;;;0.40;0.40;;;18.10;99.90;;;;;;5040082;28;20681;-66
2022/06/09 01:25:37;;;;;;;0.40;0.40;;;18.10;99.90;;;;;;5039751;28;20682;-65
2022/06/09 01:28:46;;;;;;;0.40;0.40;;;18.10;99.90;;;;;;5036063;28;20257;-65
2022/06/09 01:31:42;;;;;;;0.40;0.40;;;18.00;99.90;;;;;;5035001;28;20217;-65
2022/06/09 01:34:55;;;;;;;0.40;0.40;;;18.00;99.90;;;;;;5035063;28;20206;-65
2022/06/09 01:37:46;;;;;;;0.52;0.52;;;18.00;99.90;;;;;;5034831;28;20283;-65
2022/06/09 01:40:34;;;;;;;0.80;0.50;;;18.00;99.90;;;;;;5035884;28;20631;-65
2022/06/09 01:43:23;;;;;;;0.55;0.50;;;17.90;99.90;;;;;;5035077;28;20247;-65
2022/06/09 01:46:19;;;;;;;0.40;0.40;;;17.90;99.90;;;;;;5035997;28;20284;-65
2022/06/09 01:49:13;;;;;;;0.40;0.40;;;17.80;99.90;;;;;;5033236;28;20209;-65
2022/06/09 01:52:02;;;;;;;0.40;0.40;;;17.70;99.90;;;;;;5034897;28;20621;-65
2022/06/09 01:54:52;;;;;;;0.50;0.50;;;17.60;99.90;;;;;;5035015;28;20218;-66
2022/06/09 01:57:42;;;;;;;2.38;2.28;;;17.60;99.90;;;;;;5046924;28;20229;-65
2022/06/09 02:00:31;;;;;;;0.40;0.40;;;17.60;99.90;;;;;;5049854;28;20194;-65
2022/06/09 02:03:24;;;;;;;0.40;0.40;;;17.50;99.90;;;;;;5039386;28;20633;-66
2022/06/09 02:06:16;;;;;;;0.57;0.57;;;17.40;99.90;;;;;;5035393;28;20590;-65
2022/06/09 02:09:05;;;;;;;0.40;0.40;;;17.30;99.90;;;;;;5033962;28;20205;-65
2022/06/09 02:11:57;;;;;;;0.40;0.40;;;17.20;99.90;;;;;;5033658;28;20204;-70
2022/06/09 02:14:48;;;;;;;0.50;0.50;;;17.20;99.90;;;;;;5035116;28;20276;-65
2022/06/09 02:17:42;;;;;;;0.40;0.40;;;17.10;99.90;;;;;;5034588;28;20269;-65
2022/06/09 02:20:32;;;;;;;0.40;0.40;;;17.00;99.90;;;;;;5033574;28;20252;-65
2022/06/09 02:23:21;;;;;;;0.40;0.40;;;16.90;99.90;;;;;;5033865;28;20209;-65
2022/06/09 02:26:09;;;;;;;0.50;0.50;;;16.80;99.90;;;;;;5033139;28;20418;-65
2022/06/09 02:28:58;;;;;;;0.40;0.40;;;16.80;99.90;;;;;;5034062;28;20206;-65
2022/06/09 02:31:47;;;;;;;0.45;0.45;;;16.70;99.90;;;;;;5033846;28;20249;-65
2022/06/09 02:34:35;;;;;;;0.40;0.40;;;16.60;99.90;;;;;;5032951;28;20206;-67
2022/06/09 02:37:23;;;;;;;0.40;0.40;;;16.60;99.90;;;;;;5034306;28;20245;-65
2022/06/09 02:40:13;;;;;;;0.40;0.40;;;16.50;99.90;;;;;;5033610;28;20637;-65
2022/06/09 02:43:01;;;;;;;0.40;0.40;;;16.50;99.90;;;;;;5032929;28;20694;-65
2022/06/09 02:45:50;;;;;;;0.40;0.40;;;16.50;99.90;;;;;;5032898;28;20197;-68
2022/06/09 02:48:40;;;;;;;0.40;0.40;;;16.50;99.90;;;;;;5033190;28;20221;-65
2022/06/09 02:51:30;;;;;;;0.40;0.40;;;16.50;99.90;;;;;;5032569;28;20194;-65
2022/06/09 02:54:19;;;;;;;0.65;0.65;;;16.40;99.90;;;;;;5034311;28;20278;-65
2022/06/09 02:57:08;;;;;;;0.40;0.40;;;16.40;99.90;;;;;;5033965;28;20628;-65
2022/06/09 02:59:57;;;;;;;0.40;0.40;;;16.40;99.90;;;;;;5033353;28;20206;-65
2022/06/09 03:02:52;;;;;;;1.08;1.08;;;16.30;99.90;;;;;;5033653;28;20256;-65
2022/06/09 03:05:40;;;;;;;0.40;0.40;;;16.30;99.90;;;;;;5032764;28;20201;-66
2022/06/09 03:08:28;;;;;;;0.47;0.47;;;16.30;99.90;;;;;;5032614;28;20767;-65
2022/06/09 03:11:17;;;;;;;0.40;0.40;;;16.20;99.90;;;;;;5032087;28;20202;-68
2022/06/09 03:14:07;;;;;;;0.40;0.40;;;16.20;99.90;;;;;;5033105;28;20208;-65
2022/06/09 03:16:55;;;;;;;0.50;0.50;;;16.20;99.90;;;;;;5033239;28;20728;-65
2022/06/09 03:19:43;;;;;;;0.40;0.40;;;16.20;99.90;;;;;;5031818;28;20576;-65
2022/06/09 03:22:32;;;;;;;0.50;0.50;;;16.20;99.90;;;;;;5031780;28;20229;-65
2022/06/09 03:25:21;;;;;;;0.50;0.50;;;16.20;99.90;;;;;;5033739;28;20217;-65
2022/06/09 03:28:09;;;;;;;0.40;0.40;;;16.20;99.90;;;;;;5033413;28;20240;-65
2022/06/09 03:30:59;;;;;;;0.40;0.40;;;16.20;99.90;;;;;;5033056;28;20221;-65
2022/06/09 03:33:49;;;;;;;0.40;0.40;;;16.20;99.90;;;;;;5037676;28;20210;-65
2022/06/09 03:36:37;;;;;;;0.40;0.40;;;16.30;99.90;;;;;;5036398;28;20702;-65
2022/06/09 03:39:25;;;;;;;0.40;0.40;;;16.30;99.90;;;;;;5035868;28;20222;-65
2022/06/09 03:42:13;;;;;;;0.40;0.40;;;16.40;99.90;;;;;;5036794;28;20198;-65
2022/06/09 03:45:02;;;;;;;0.40;0.40;;;16.60;99.90;;;;;;5036774;28;20221;-65
2022/06/09 03:47:51;;;;;;;0.40;0.40;;;16.70;99.90;;;;;;5037029;28;20249;-65
2022/06/09 03:50:39;;;;;;;0.40;0.40;;;16.90;99.90;;;;;;5040820;28;20205;-65
2022/06/09 03:53:27;;;;;;;0.60;0.60;;;17.00;99.90;;;;;;5035920;28;20198;-65
2022/06/09 03:56:18;;;;;;;0.60;0.60;;;17.20;99.90;;;;;;5037109;28;20222;-65
2022/06/09 03:59:07;;;;;;;0.50;0.50;;;17.40;99.90;;;;;;5036338;28;20197;-66
2022/06/09 04:01:55;;;;;;;0.70;0.63;;;17.40;99.90;;;;;;5036920;28;20202;-65
2022/06/09 04:04:45;;;;;;;0.40;0.40;;;17.50;99.90;;;;;;5037767;28;20206;-65
2022/06/09 04:07:33;;;;;;;0.63;0.63;;;17.60;99.90;;;;;;5036670;28;20644;-65
2022/06/09 04:10:30;;;;;;;0.50;0.50;;;17.60;99.90;;;;;;5036490;28;20206;-65
2022/06/09 04:13:18;;;;;;;0.40;0.40;;;17.70;99.90;;;;;;5036175;28;20206;-65
2022/06/09 04:16:12;;;;;;;0.40;0.40;;;17.80;99.90;;;;;;5037254;28;20222;-66
2022/06/09 04:19:02;;;;;;;0.40;0.40;;;17.80;99.90;;;;;;5036816;28;20198;-65
2022/06/09 04:21:52;;;;;;;1.15;0.70;;;17.80;99.90;;;;;;5036265;28;20202;-65
2022/06/09 04:24:40;;;;;;;0.75;0.75;;;17.90;99.90;;;;;;5036456;28;20198;-65
2022/06/09 04:27:28;;;;;;;0.40;0.40;;;17.90;99.90;;;;;;5036345;28;20218;-65
2022/06/09 04:30:17;;;;;;;0.40;0.40;;;17.90;99.90;;;;;;5036210;28;20277;-65
2022/06/09 04:33:12;;;;;;;0.40;0.40;;;17.90;99.90;;;;;;5036853;28;20194;-65
2022/06/09 04:36:00;;;;;;;0.50;0.50;;;17.90;99.90;;;;;;5036832;28;20225;-65
2022/06/09 04:38:50;;;;;;;0.70;0.70;;;18.00;99.90;;;;;;5035021;28;20198;-65
2022/06/09 04:41:38;;;;;;;0.40;0.40;;;17.90;99.90;;;;;;5035781;28;20611;-65
2022/06/09 04:44:26;;;;;;;0.60;0.60;;;17.90;99.90;;;;;;5035031;28;20199;-65
2022/06/09 04:47:15;;;;;;;0.50;0.50;;;17.90;99.90;;;;;;5035846;28;20642;-66
2022/06/09 04:50:03;;;;;;;0.40;0.40;;;17.90;99.90;;;;;;5034279;28;20205;-65
2022/06/09 04:52:52;;;;;;;1.73;0.70;;;17.90;99.90;;;;;;5036121;28;20202;-65
2022/06/09 04:55:43;;;;;;;0.77;0.60;;;17.90;99.90;;;;;;5036019;28;20206;-65
2022/06/09 04:58:32;;;;;;;0.40;0.40;;;18.00;99.90;;;;;;5069190;22;20644;-72
2022/06/09 05:01:25;;;;;;;0.40;0.40;;;18.00;99.90;;;;;;5053540;28;20681;-72
2022/06/09 05:04:13;;;;;;;1.42;0.77;;;18.00;99.90;;;;;;5053648;28;20205;-71
2022/06/09 05:07:01;;;;;;;0.40;0.40;;;18.00;99.90;;;;;;5053490;28;20283;-72
2022/06/09 05:09:49;;;;;;;0.60;0.50;;;18.00;99.90;;;;;;5072697;28;20197;-71
2022/06/09 05:12:39;;;;;;;0.50;0.50;;;17.90;99.90;;;;;;5072870;28;20204;-70
2022/06/09 05:15:27;;;;;;;0.40;0.40;;;17.90;99.90;;;;;;5073267;28;20197;-73
2022/06/09 05:18:15;;;;;;;1.13;1.02;;;17.90;99.90;;;;;;5073056;28;20684;-71
2022/06/09 05:21:04;;;;;;;0.98;0.60;;;17.90;99.90;;;;;;5072454;28;20627;-72
2022/06/09 05:23:52;;;;;;;1.17;1.17;;;17.90;99.90;;;;;;5072554;28;20201;-74
2022/06/09 05:26:41;;;;;;;0.50;0.50;;;18.00;99.90;;;;;;5073368;28;20193;-72
2022/06/09 05:29:30;;;;;;;0.47;0.47;;;18.00;99.90;;;;;;5073125;28;20262;-71
2022/06/09 05:32:19;;;;;;;0.50;0.50;;;18.00;99.90;;;;;;5077817;28;20227;-74
2022/06/09 05:35:09;;;;;;;0.50;0.50;;;18.00;99.90;;;;;;5075004;28;20594;-73
2022/06/09 05:47:19;;;;;;;0.40;0.40;;;17.90;99.90;;;;;;5071327;28;20200;-72
2022/06/09 05:50:09;;;;;;;0.40;0.40;;;18.00;99.90;;;;;;5070588;28;20201;-70
2022/06/09 05:52:57;;;;;;;0.40;0.40;;;18.00;99.90;;;;;;5071178;28;20197;-71
2022/06/09 05:55:45;;;;;;;0.40;0.40;;;18.00;99.90;;;;;;5072130;28;20208;-70
2022/06/09 05:58:35;;;;;;;0.40;0.40;;;18.00;99.90;;;;;;5071801;28;20236;-70
2022/06/09 06:01:23;;;;;;;0.50;0.50;;;18.10;99.90;;;;;;5066014;28;20207;-73
2022/06/09 06:04:14;;;;;;;0.40;0.40;;;18.10;99.90;;;;;;5070666;28;20675;-70
2022/06/09 06:07:03;;;;;;;0.40;0.40;;;18.20;99.90;;;;;;5070672;28;20200;-68
2022/06/09 06:09:51;;;;;;;0.63;0.63;;;18.20;99.90;;;;;;5050594;28;20208;-70
2022/06/09 06:12:39;;;;;;;0.50;0.50;;;18.30;99.90;;;;;;5051407;28;20224;-71
2022/06/09 06:15:27;;;;;;;0.60;0.50;;;18.30;99.90;;;;;;5050611;28;20247;-70
2022/06/09 06:18:15;;;;;;;0.63;0.60;;;18.30;99.90;;;;;;5050364;28;20217;-70
2022/06/09 06:21:05;;;;;;;0.40;0.40;;;18.30;99.90;;;;;;5077289;28;20211;-71
2022/06/09 06:23:55;;;;;;;0.40;0.40;;;18.30;99.90;;;;;;5091227;28;20563;-70
2022/06/09 06:26:43;;;;;;;0.40;0.40;;;18.40;99.90;;;;;;5090452;28;20271;-70
2022/06/09 06:29:32;;;;;;;0.50;0.50;;;18.40;99.90;;;;;;5090911;28;20203;-70
2022/06/09 06:32:20;;;;;;;0.50;0.50;;;18.40;99.90;;;;;;5089915;28;20753;-70
2022/06/09 06:35:09;;;;;;;0.40;0.40;;;18.50;99.90;;;;;;5091451;28;20211;-71
2022/06/09 06:38:04;;;;;;;0.70;0.70;;;18.50;99.90;;;;;;5090698;28;20226;-70
2022/06/09 06:40:54;;;;;;;0.50;0.50;;;18.40;99.90;;;;;;5090084;28;20204;-71
2022/06/09 06:43:43;;;;;;;0.50;0.50;;;18.30;99.90;;;;;;5089819;28;20211;-70
2022/06/09 06:46:32;;;;;;;0.57;0.57;;;18.20;99.90;;;;;;5090622;28;20714;-70
2022/06/09 06:49:20;;;;;;;0.60;0.60;;;18.10;99.90;;;;;;5090800;28;20725;-71
2022/06/09 06:52:08;;;;;;;0.50;0.50;;;18.10;99.90;;;;;;5081183;28;20205;-71
2022/06/09 06:54:58;;;;;;;0.60;0.60;;;18.10;99.90;;;;;;5050567;28;20272;-73
2022/06/09 06:57:47;;;;;;;0.50;0.50;;;18.30;99.90;;;;;;5078736;28;20252;-69
2022/06/09 07:00:35;;;;;;;0.50;0.50;;;18.40;99.90;;;;;;5090010;28;20204;-70
2022/06/09 07:03:23;;;;;;;0.40;0.40;;;18.60;99.90;;;;;;5091536;28;20253;-70
2022/06/09 07:06:22;;;;;;;0.40;0.40;;;18.80;99.90;;;;;;5090722;28;20683;-70
2022/06/09 07:09:10;;;;;;;1.85;0.80;;;18.90;99.90;;;;;;5094772;28;20219;-70
2022/06/09 07:11:59;;;;;;;0.45;0.45;;;18.80;99.90;;;;;;5094502;28;20199;-70
2022/06/09 07:14:47;;;;;;;0.55;0.55;;;18.80;99.90;;;;;;5095030;28;20192;-71
2022/06/09 07:17:36;;;;;;;2.00;0.63;;;18.80;99.90;;;;;;5094285;28;20223;-70
2022/06/09 07:20:25;;;;;;;1.35;1.25;;;18.70;99.90;;;;;;5095931;28;20203;-71
2022/06/09 07:23:13;;;;;;;0.40;0.40;;;18.60;99.90;;;;;;5098463;28;20229;-71
2022/06/09 07:26:02;;;;;;;0.40;0.40;;;18.70;99.90;;;;;;5094214;28;20677;-69
2022/06/09 07:28:52;;;;;;;0.40;0.40;;;18.80;99.90;;;;;;5094317;28;20215;-72
2022/06/09 07:31:41;;;;;;;0.40;0.40;;;18.80;99.90;;;;;;5100882;28;20233;-70
2022/06/09 07:34:29;;;;;;;0.52;0.52;;;18.90;99.90;;;;;;5094491;28;20200;-68
2022/06/09 07:37:18;;;;;;;0.40;0.40;;;18.80;99.90;;;;;;5094139;28;20683;-69
2022/06/09 07:40:07;;;;;;;0.90;0.80;;;18.60;99.90;;;;;;5095392;28;20196;-73
2022/06/09 07:42:56;;;;;;;0.98;0.77;;;18.60;99.90;;;;;;5102215;28;20212;-71
2022/06/09 07:45:47;;;;;;;0.95;0.95;;;18.70;99.90;;;;;;5099706;28;20207;-69
2022/06/09 07:48:35;;;;;;;0.40;0.40;;;18.90;99.90;;;;;;5097998;28;20226;-71
2022/06/09 07:51:36;;;;;;;0.40;0.40;;;19.10;99.90;;;;;;5098663;28;20202;-70
2022/06/09 07:54:25;;;;;;;0.43;0.43;;;19.40;99.90;;;;;;5098064;28;20207;-71
2022/06/09 07:57:13;;;;;;;0.50;0.50;;;19.50;99.90;;;;;;5089730;28;20281;-70
2022/06/09 08:00:03;;;;;;;0.50;0.50;;;19.50;99.90;;;;;;5080692;28;20207;-69
2022/06/09 08:02:54;;;;;;;0.40;0.40;;;19.50;99.90;;;;;;5075599;28;20220;-69
2022/06/09 08:05:42;;;;;;;0.60;0.60;;;19.50;99.90;;;;;;5078876;28;20311;-71
2022/06/09 08:08:39;;;;;;;0.50;0.50;;;19.40;99.90;;;;;;5072048;28;20638;-72
2022/06/09 08:11:30;;;;;;;0.40;0.40;;;19.30;99.90;;;;;;5065212;28;20201;-70
2022/06/09 08:14:18;;;;;;;0.77;0.70;;;19.20;99.90;;;;;;5058167;28;20670;-71
2022/06/09 08:17:12;;;;;;;0.73;0.73;;;19.10;99.90;;;;;;5075811;28;20258;-68
2022/06/09 08:20:02;;;;;;;0.40;0.40;;;19.20;99.90;;;;;;5062090;28;20205;-67
2022/06/09 08:22:51;;;;;;;0.50;0.50;;;19.30;99.90;;;;;;5058676;28;20202;-69
2022/06/09 08:25:40;;;;;;;0.40;0.40;;;19.20;99.90;;;;;;5066384;28;20196;-69
2022/06/09 08:28:28;;;;;;;0.57;0.57;;;19.30;99.90;;;;;;5073224;28;20220;-69
2022/06/09 08:31:17;;;;;;;0.40;0.40;;;19.30;99.90;;;;;;5056029;28;20201;-71
2022/06/09 08:34:06;;;;;;;0.50;0.50;;;19.50;99.90;;;;;;5067238;28;20333;-67
2022/06/09 08:36:55;;;;;;;1.00;1.00;;;19.70;99.90;;;;;;5066715;28;20590;-68
2022/06/09 08:39:43;;;;;;;0.80;0.60;;;19.80;99.90;;;;;;5070888;28;20228;-68
2022/06/09 08:42:43;;;;;;;0.40;0.40;;;19.70;99.90;;;;;;5073369;28;20197;-68
2022/06/09 08:45:35;;;;;;;1.35;1.35;;;20.00;99.90;;;;;;5060217;28;20609;-70
2022/06/09 08:48:25;;;;;;;0.50;0.50;;;20.10;99.90;;;;;;5052750;28;20225;-68
2022/06/09 08:51:27;;;;;;;0.40;0.40;;;20.20;99.90;;;;;;5053036;28;20306;-70
2022/06/09 08:54:21;;;;;;;0.95;0.70;;;20.30;99.90;;;;;;5066533;28;20577;-68
2022/06/09 08:57:17;;;;;;;0.50;0.50;;;20.50;99.90;;;;;;5066047;28;20200;-68
2022/06/09 09:00:07;;;;;;;0.40;0.40;;;20.40;99.90;;;;;;5068233;28;20221;-74
2022/06/09 09:03:03;;;;;;;0.52;0.45;;;20.30;99.90;;;;;;5065852;28;20209;-70
2022/06/09 09:05:58;;;;;;;0.47;0.47;;;20.20;99.90;;;;;;5062906;28;20228;-69
2022/06/09 09:08:47;;;;;;;0.82;0.80;;;20.10;99.90;;;;;;5062060;28;20224;-68
2022/06/09 09:11:46;;;;;;;0.57;0.57;;;19.90;99.90;;;;;;5064047;28;20208;-69
2022/06/09 09:14:40;;;;;;;1.05;0.73;;;19.70;99.90;;;;;;5063998;28;20205;-69
2022/06/09 09:17:36;;;;;;;0.60;0.60;;;19.50;99.90;;;;;;5064968;28;20216;-73
2022/06/09 09:20:30;;;;;;;0.40;0.40;;;19.50;99.90;;;;;;5063359;28;20204;-71
2022/06/09 09:23:21;;;;;;;1.27;0.93;;;19.40;99.90;;;;;;5061358;28;20200;-72
2022/06/09 09:26:19;;;;;;;0.68;0.68;;;19.50;99.90;;;;;;5064173;28;20194;-72
2022/06/09 09:29:16;;;;;;;0.60;0.60;;;19.70;99.90;;;;;;5057525;28;20697;-72
2022/06/09 09:32:09;;;;;;;0.63;0.63;;;19.90;99.90;;;;;;5054075;28;20197;-72
2022/06/09 09:34:58;;;;;;;0.88;0.88;;;20.20;99.90;;;;;;5052296;28;20201;-72
2022/06/09 09:37:49;;;;;;;0.70;0.70;;;20.50;99.90;;;;;;5055937;28;20612;-70
2022/06/09 09:40:39;;;;;;;0.45;0.45;;;20.90;99.90;;;;;;5069041;28;20209;-68
2022/06/09 09:43:35;;;;;;;0.60;0.60;;;21.40;99.90;;;;;;5064129;28;20581;-70
2022/06/09 09:46:30;;;;;;;0.50;0.50;;;21.60;99.90;;;;;;5058682;28;20197;-70
2022/06/09 09:49:24;;;;;;;0.50;0.50;;;21.90;99.90;;;;;;5059167;28;20212;-68
2022/06/09 09:52:37;;;;;;;0.60;0.60;;;22.10;99.90;;;;;;5065595;28;20208;-70
2022/06/09 09:55:34;;;;;;;0.40;0.40;;;22.50;99.90;;;;;;5063692;28;20197;-70
2022/06/09 09:58:36;;;;;;;0.52;0.52;;;22.70;99.90;;;;;;5066878;28;20298;-69
2022/06/09 10:01:34;;;;;;;0.40;0.40;;;22.90;99.90;;;;;;5065136;28;20201;-72
2022/06/09 10:14:47;;;;;;;0.40;0.40;;;23.10;99.90;;;;;;5068419;28;20677;-68
2022/06/09 10:17:43;;;;;;;0.40;0.40;;;23.10;99.90;;;;;;5066159;28;20227;-69
2022/06/09 10:21:04;;;;;;;0.40;0.40;;;23.20;99.90;;;;;;5062404;28;20665;-69
2022/06/09 10:23:57;;;;;;;0.40;0.40;;;23.80;99.90;;;;;;5060871;28;20289;-68
2022/06/09 10:26:50;;;;;;;0.40;0.40;;;23.90;99.90;;;;;;5065739;28;20192;-69
2022/06/09 10:29:47;;;;;;;0.75;0.75;;;23.70;99.90;;;;;;5062062;28;20193;-68
2022/06/09 10:32:47;;;;;;;2.40;2.28;;;23.30;99.90;;;;;;5063125;28;20215;-69
2022/06/09 10:35:42;;;;;;;0.50;0.50;;;22.60;99.90;;;;;;5068244;28;20758;-69
2022/06/09 10:38:34;;;;;;;0.63;0.63;;;22.20;99.90;;;;;;5072277;28;20626;-72
2022/06/09 10:41:34;;;;;;;0.45;0.45;;;21.90;99.90;;;;;;5070523;28;20197;-72
2022/06/09 10:44:27;;;;;;;0.40;0.40;;;21.90;99.90;;;;;;5069788;28;20196;-69
2022/06/09 10:57:04;;;;;;;0.40;0.40;;;22.80;99.90;;;;;;5071525;28;20201;-71
2022/06/09 10:59:57;;;;;;;0.40;0.40;;;22.60;99.90;;;;;;5072571;28;20721;-70
2022/06/09 11:02:50;;;;;;;0.40;0.40;;;22.90;99.90;;;;;;5071717;28;20673;-69
2022/06/09 11:06:00;;;;;;;0.60;0.60;;;23.10;99.90;;;;;;5071516;28;20203;-70
2022/06/09 11:09:02;;;;;;;0.40;0.40;;;23.10;99.90;;;;;;5070805;28;20220;-69
2022/06/09 11:12:01;;;;;;;2.78;1.23;;;23.00;99.90;;;;;;5070630;28;20200;-69
2022/06/09 11:15:15;;;;;;;0.40;0.40;;;22.70;99.90;;;;;;5070700;28;20201;-69
2022/06/09 11:18:16;;;;;;;0.40;0.40;;;22.70;99.90;;;;;;5069532;28;20590;-67
2022/06/09 11:21:15;;;;;;;0.40;0.40;;;23.00;99.90;;;;;;5064726;28;20212;-69
2022/06/09 11:24:16;;;;;;;0.40;0.40;;;23.60;99.90;;;;;;5060203;28;20212;-69
2022/06/09 11:27:18;;;;;;;5.65;5.15;;;24.30;99.90;;;;;;5064540;28;20204;-69
2022/06/09 11:30:25;;;;;;;0.40;0.40;;;25.10;99.90;;;;;;5061964;28;20196;-70
2022/06/09 11:33:24;;;;;;;0.40;0.40;;;25.80;99.90;;;;;;5058242;28;20562;-69
2022/06/09 11:36:23;;;;;;;0.40;0.40;;;26.30;99.90;;;;;;5064309;28;20208;-69
2022/06/09 11:39:24;;;;;;;0.40;0.40;;;26.70;99.90;;;;;;5061412;28;20618;-69
2022/06/09 11:42:27;;;;;;;0.40;0.40;;;26.30;99.90;;;;;;5061431;28;20206;-72
2022/06/09 11:45:25;;;;;;;0.95;0.95;;;25.40;99.90;;;;;;5067322;28;20205;-69
2022/06/09 11:48:22;;;;;;;0.47;0.47;;;24.70;99.90;;;;;;5071576;28;20222;-68
2022/06/09 11:51:11;;;;;;;0.50;0.50;;;23.80;99.90;;;;;;5068316;28;20205;-69
2022/06/09 11:54:05;;;;;;;1.35;1.25;;;23.00;99.90;;;;;;5065543;28;20689;-71
2022/06/09 11:57:23;;;;;;;0.57;0.57;;;22.30;99.90;;;;;;5063732;28;20240;-69
2022/06/09 12:00:39;;;;;;;0.57;0.57;;;21.60;99.90;;;;;;5065419;28;20715;-73
2022/06/09 12:03:56;;;;;;;1.58;1.42;;;21.10;99.90;;;;;;5070110;28;20207;-71
2022/06/09 12:07:03;;;;;;;1.98;1.48;;;20.80;99.90;;;;;;5073668;28;20247;-70
2022/06/09 12:10:01;;;;;;;0.60;0.60;;;20.60;99.90;;;;;;5071469;28;20197;-70
2022/06/09 12:13:15;;;;;;;1.67;1.30;;;20.60;99.90;;;;;;5068057;28;20208;-68
2022/06/09 12:16:06;;;;;;;0.88;0.88;;;20.60;99.90;;;;;;5064476;28;20204;-69
2022/06/09 12:19:19;;;;;;;1.83;1.67;;;20.60;99.90;;;;;;5063369;28;20270;-70
2022/06/09 12:22:45;;;;;;;1.30;1.20;;;20.50;99.90;;;;;;5063143;28;20197;-70
2022/06/09 12:25:37;;;;;;;1.08;0.98;;;20.50;99.90;;;;;;5061386;28;20825;-70
2022/06/09 12:28:47;;;;;;;0.50;0.50;;;20.50;99.90;;;;;;5055865;28;20701;-70
2022/06/09 12:31:37;;;;;;;0.43;0.43;;;20.50;99.90;;;;;;5053301;28;20202;-72
2022/06/09 12:34:26;;;;;;;0.60;0.60;;;20.60;99.90;;;;;;5068144;28;20201;-70
2022/06/09 12:37:20;;;;;;;0.40;0.40;;;20.70;99.90;;;;;;5063687;28;20197;-72
2022/06/09 12:40:17;;;;;;;0.50;0.50;;;20.70;99.90;;;;;;5063605;28;20209;-70
2022/06/09 12:43:08;;;;;;;0.63;0.63;;;20.70;99.90;;;;;;5065626;28;20188;-70
2022/06/09 12:46:06;;;;;;;0.50;0.50;;;20.90;99.90;;;;;;5062564;28;20209;-69
2022/06/09 12:48:55;;;;;;;0.40;0.40;;;21.00;99.90;;;;;;5062668;28;20228;-72
2022/06/09 12:51:44;;;;;;;0.40;0.40;;;21.10;99.90;;;;;;5063950;28;20208;-71
2022/06/09 12:54:36;;;;;;;0.50;0.50;;;21.30;99.90;;;;;;5067665;28;20205;-69
2022/06/09 12:57:27;;;;;;;0.40;0.40;;;21.50;99.90;;;;;;5061580;28;20241;-72
2022/06/09 13:00:21;;;;;;;0.40;0.40;;;21.60;99.90;;;;;;5057401;28;20220;-70
2022/06/09 13:03:23;;;;;;;0.40;0.40;;;21.70;99.90;;;;;;5073449;28;20208;-69
2022/06/09 13:06:21;;;;;;;0.40;0.40;;;21.80;99.90;;;;;;5072178;28;20207;-71
2022/06/09 13:09:17;;;;;;;0.40;0.40;;;21.80;99.90;;;;;;5070738;28;20221;-73
2022/06/09 13:15:33;;;;;;;0.40;0.40;;;22.50;99.90;;;;;;5064038;28;20574;-71
2022/06/09 13:18:28;;;;;;;0.40;0.40;;;21.70;99.90;;;;;;5061710;28;20216;-69
2022/06/09 13:21:20;;;;;;;0.40;0.40;;;21.70;99.90;;;;;;5070039;28;20608;-71
2022/06/09 13:24:15;;;;;;;0.60;0.60;;;21.60;99.90;;;;;;5068981;28;20196;-71
2022/06/09 13:27:08;;;;;;;0.50;0.50;;;21.80;99.90;;;;;;5053114;28;20208;-70
2022/06/09 13:30:02;;;;;;;0.40;0.40;;;22.10;99.90;;;;;;5053017;28;20256;-70
2022/06/09 13:32:50;;;;;;;0.40;0.40;;;22.30;99.90;;;;;;5063398;28;20207;-71
2022/06/09 13:36:21;;;;;;;0.40;0.40;;;22.50;99.90;;;;;;5066930;28;20201;-69
2022/06/09 13:39:35;;;;;;;0.50;0.50;;;22.60;99.90;;;;;;5063380;28;21016;-70
2022/06/09 13:42:28;;;;;;;0.40;0.40;;;22.90;99.90;;;;;;5063426;28;20202;-70
2022/06/09 13:45:23;;;;;;;0.60;0.60;;;22.90;99.90;;;;;;5062626;28;20197;-70
2022/06/09 13:48:18;;;;;;;0.50;0.50;;;22.90;99.90;;;;;;5060278;28;20227;-68
2022/06/09 13:51:19;;;;;;;0.40;0.40;;;22.90;99.90;;;;;;5063449;28;20198;-69
2022/06/09 13:54:18;;;;;;;0.40;0.40;;;23.00;99.90;;;;;;5064584;28;20204;-68
2022/06/09 13:57:17;;;;;;;1.85;1.67;;;23.20;99.90;;;;;;5071598;28;20258;-69
2022/06/09 14:00:08;;;;;;;0.40;0.40;;;23.20;99.90;;;;;;5067857;28;20197;-69
2022/06/09 14:03:02;;;;;;;0.40;0.40;;;23.40;99.90;;;;;;5064441;28;20615;-68
2022/06/09 14:05:54;;;;;;;0.60;0.60;;;23.60;99.90;;;;;;5061299;28;20240;-70
2022/06/09 14:08:46;;;;;;;0.40;0.40;;;24.00;99.90;;;;;;5063904;28;20748;-69
2022/06/09 14:11:35;;;;;;;0.60;0.60;;;24.50;99.90;;;;;;5063216;28;20189;-69
2022/06/09 14:14:44;;;;;;;0.40;0.40;;;24.80;99.90;;;;;;5062423;28;20675;-69
2022/06/09 14:17:32;;;;;;;0.40;0.40;;;24.70;99.90;;;;;;5062796;28;20594;-68
2022/06/09 14:20:25;;;;;;;0.40;0.40;;;24.60;99.90;;;;;;5060616;28;20228;-68
2022/06/09 14:23:19;;;;;;;1.25;1.15;;;24.50;99.90;;;;;;5052780;28;20201;-71
2022/06/09 14:26:16;;;;;;;1.15;1.15;;;24.20;99.90;;;;;;5059309;28;20605;-69
2022/06/09 14:29:08;;;;;;;2.15;1.08;;;23.90;99.90;;;;;;5074098;28;20719;-69
2022/06/09 14:31:56;;;;;;;0.40;0.40;;;23.60;99.90;;;;;;5068331;28;20197;-71
2022/06/09 14:34:45;;;;;;;1.05;1.00;;;23.10;99.90;;;;;;5068742;28;20693;-70
2022/06/09 14:37:33;;;;;;;0.50;0.50;;;22.60;99.90;;;;;;5057753;28;20225;-70
2022/06/09 14:40:24;;;;;;;0.73;0.73;;;22.20;99.90;;;;;;5072936;28;20204;-70
2022/06/09 14:43:13;;;;;;;0.60;0.60;;;22.00;99.90;;;;;;5067578;28;20200;-69
2022/06/09 14:46:03;;;;;;;1.45;0.88;;;21.90;99.90;;;;;;5067340;28;20337;-69
2022/06/09 14:48:52;;;;;;;0.70;0.70;;;21.90;99.90;;;;;;5063645;28;20596;-69
2022/06/09 14:51:40;;;;;;;0.80;0.80;;;22.10;99.90;;;;;;5065508;28;20199;-72
2022/06/09 14:54:28;;;;;;;0.40;0.40;;;22.80;99.90;;;;;;5063202;28;20666;-70
2022/06/09 14:57:18;;;;;;;0.50;0.50;;;24.20;99.90;;;;;;5065053;28;20192;-69
2022/06/09 15:00:12;;;;;;;0.45;0.45;;;25.80;99.90;;;;;;5063221;28;20665;-68
2022/06/09 15:03:02;;;;;;;0.50;0.50;;;26.80;99.90;;;;;;5061871;28;20247;-68
2022/06/09 15:05:51;;;;;;;0.40;0.40;;;26.80;99.90;;;;;;5063405;28;20201;-70
2022/06/09 15:08:41;;;;;;;0.70;0.60;;;27.20;99.90;;;;;;5062085;28;20727;-68
2022/06/09 15:11:29;;;;;;;0.40;0.40;;;28.80;98.60;;;;;;5063501;28;20193;-69
2022/06/09 15:14:18;;;;;;;0.43;0.43;;;29.60;95.90;;;;;;5070956;28;20226;-69
2022/06/09 15:17:27;;;;;;;0.50;0.50;;;30.20;94.10;;;;;;5070892;28;20256;-70
2022/06/09 15:20:21;;;;;;;0.40;0.40;;;30.80;91.20;;;;;;5072014;28;20577;-69
2022/06/09 15:23:11;;;;;;;1.42;1.42;;;31.10;90.20;;;;;;5070723;28;20200;-67
2022/06/09 15:25:59;;;;;;;0.40;0.40;;;31.00;87.20;;;;;;5070943;28;20201;-67
2022/06/09 15:28:48;;;;;;;0.50;0.50;;;31.70;83.40;;;;;;5073024;28;20225;-68
2022/06/09 15:31:36;;;;;;;0.70;0.70;;;33.40;79.20;;;;;;5074723;28;20197;-67
2022/06/09 15:34:25;;;;;;;0.40;0.40;;;34.60;74.20;;;;;;5074560;28;20197;-68